createdAt,value
2018-07-24T00:02:17.547Z,20.40
2018-07-24T00:04:46.094Z,20.30
2018-07-24T00:07:14.765Z,20.30
2018-07-24T00:09:43.818Z,20.20
2018-07-24T00:12:12.682Z,20.10
2018-07-24T00:14:41.396Z,20.00
2018-07-24T00:17:09.989Z,20.10
2018-07-24T00:19:38.866Z,20.10
2018-07-24T00:22:07.857Z,20.10
2018-07-24T00:24:36.891Z,20.00
2018-07-24T00:27:05.728Z,20.00
2018-07-24T00:29:34.328Z,20.10
2018-07-24T00:32:02.964Z,20.00
2018-07-24T00:34:31.518Z,19.90
2018-07-24T00:37:00.373Z,20.00
2018-07-24T00:39:28.968Z,20.00
2018-07-24T00:41:57.664Z,20.00
2018-07-24T00:44:26.336Z,19.90
2018-07-24T00:46:55.186Z,19.90
2018-07-24T00:49:23.810Z,19.90
2018-07-24T00:51:52.400Z,19.90
2018-07-24T00:54:21.108Z,19.90
2018-07-24T00:56:49.920Z,19.80
2018-07-24T00:59:18.463Z,19.80
2018-07-24T01:01:47.044Z,19.70
2018-07-24T01:04:15.649Z,19.70
2018-07-24T01:06:44.292Z,19.60
2018-07-24T01:09:12.859Z,19.40
2018-07-24T01:11:42.205Z,19.30
2018-07-24T01:14:11.000Z,19.40
2018-07-24T01:16:39.684Z,19.40
2018-07-24T01:19:08.334Z,19.40
2018-07-24T01:21:37.089Z,19.50
2018-07-24T01:24:06.307Z,19.50
2018-07-24T01:26:34.973Z,19.40
2018-07-24T01:29:03.657Z,19.40
2018-07-24T01:31:32.767Z,19.40
2018-07-24T01:34:01.552Z,19.50
2018-07-24T01:36:30.384Z,19.50
2018-07-24T01:38:59.260Z,19.40
2018-07-24T01:41:28.111Z,19.40
2018-07-24T01:43:56.826Z,19.30
2018-07-24T01:46:25.468Z,19.30
2018-07-24T01:48:54.840Z,19.20
2018-07-24T01:51:23.383Z,19.10
2018-07-24T01:53:51.998Z,19.20
2018-07-24T01:56:20.634Z,19.20
2018-07-24T01:58:49.298Z,19.20
2018-07-24T02:01:17.993Z,19.20
2018-07-24T02:03:46.603Z,19.20
2018-07-24T02:06:15.349Z,19.20
2018-07-24T02:08:43.991Z,19.10
2018-07-24T02:11:12.542Z,19.10
2018-07-24T02:13:41.266Z,19.10
2018-07-24T02:16:09.820Z,19.10
2018-07-24T02:18:38.396Z,19.10
2018-07-24T02:21:07.280Z,19.10
2018-07-24T02:23:36.370Z,19.10
2018-07-24T02:26:05.389Z,19.10
2018-07-24T02:28:34.978Z,19.00
2018-07-24T02:31:03.701Z,19.00
2018-07-24T02:33:32.393Z,18.90
2018-07-24T02:36:01.059Z,18.90
2018-07-24T02:38:29.836Z,19.00
2018-07-24T02:40:58.502Z,18.90
2018-07-24T02:43:27.173Z,18.90
2018-07-24T02:45:55.929Z,18.90
2018-07-24T02:48:24.665Z,18.90
2018-07-24T02:53:21.600Z,18.90
2018-07-24T02:55:50.286Z,18.90
2018-07-24T03:00:47.438Z,18.90
2018-07-24T03:03:16.261Z,18.90
2018-07-24T03:05:44.825Z,18.80
2018-07-24T03:08:13.408Z,18.80
2018-07-24T03:10:42.016Z,18.80
2018-07-24T03:13:10.563Z,18.80
2018-07-24T03:18:07.528Z,18.80
2018-07-24T03:23:04.777Z,18.70
2018-07-24T03:25:33.565Z,18.70
2018-07-24T03:28:02.146Z,18.70
2018-07-24T03:30:31.487Z,18.70
2018-07-24T03:33:00.054Z,18.70
2018-07-24T03:35:28.747Z,18.70
2018-07-24T03:37:57.405Z,18.60
2018-07-24T03:40:26.117Z,18.70
2018-07-24T03:42:54.811Z,18.60
2018-07-24T03:45:23.473Z,18.60
2018-07-24T03:47:52.293Z,18.60
2018-07-24T03:50:20.934Z,18.60
2018-07-24T03:52:49.764Z,18.60
2018-07-24T03:55:18.379Z,18.60
2018-07-24T03:57:47.449Z,18.50
2018-07-24T04:00:16.038Z,18.50
2018-07-24T04:02:44.647Z,18.40
2018-07-24T04:05:13.414Z,18.40
2018-07-24T04:07:42.021Z,18.30
2018-07-24T04:10:10.628Z,18.30
2018-07-24T04:12:39.208Z,18.30
2018-07-24T04:15:07.800Z,18.40
2018-07-24T04:17:36.379Z,18.40
2018-07-24T04:20:05.168Z,18.50
2018-07-24T04:22:33.900Z,18.50
2018-07-24T04:25:02.562Z,18.60
2018-07-24T04:27:31.084Z,18.60
2018-07-24T04:29:59.978Z,18.60
2018-07-24T04:32:28.727Z,18.60
2018-07-24T04:34:57.293Z,18.70
2018-07-24T04:37:26.193Z,18.70
2018-07-24T04:39:55.008Z,18.80
2018-07-24T04:42:23.704Z,18.80
2018-07-24T04:44:52.822Z,18.80
2018-07-24T04:47:21.531Z,18.80
2018-07-24T04:49:50.150Z,18.90
2018-07-24T04:52:18.795Z,19.00
2018-07-24T04:54:47.453Z,19.00
2018-07-24T04:57:16.119Z,19.00
2018-07-24T04:59:44.833Z,19.00
2018-07-24T05:02:13.644Z,19.10
2018-07-24T05:04:42.235Z,19.20
2018-07-24T05:07:11.512Z,19.20
2018-07-24T05:09:40.196Z,19.30
2018-07-24T05:12:08.844Z,19.30
2018-07-24T05:14:37.520Z,19.40
2018-07-24T05:17:06.100Z,19.40
2018-07-24T05:19:34.771Z,19.60
2018-07-24T05:22:03.948Z,19.60
2018-07-24T05:24:32.688Z,19.70
2018-07-24T05:27:01.291Z,19.80
2018-07-24T05:29:30.758Z,19.80
2018-07-24T05:31:59.412Z,19.90
2018-07-24T05:34:28.597Z,20.00
2018-07-24T05:36:57.524Z,20.10
2018-07-24T05:39:26.100Z,20.20
2018-07-24T05:41:54.917Z,20.30
2018-07-24T05:44:25.048Z,20.40
2018-07-24T05:46:53.969Z,20.40
2018-07-24T05:49:22.618Z,20.50
2018-07-24T05:51:51.325Z,20.60
2018-07-24T05:54:20.145Z,20.70
2018-07-24T05:56:50.226Z,20.80
2018-07-24T05:59:18.799Z,20.90
2018-07-24T06:01:47.588Z,21.00
2018-07-24T06:04:16.212Z,21.10
2018-07-24T06:06:44.885Z,21.20
2018-07-24T06:09:13.524Z,21.20
2018-07-24T06:11:42.409Z,21.40
2018-07-24T06:14:11.077Z,21.40
2018-07-24T06:16:39.757Z,21.50
2018-07-24T06:19:08.393Z,21.70
2018-07-24T06:21:37.731Z,21.80
2018-07-24T06:24:06.497Z,21.90
2018-07-24T06:26:35.670Z,22.00
2018-07-24T06:29:04.306Z,22.20
2018-07-24T06:31:32.825Z,22.50
2018-07-24T06:34:01.519Z,22.90
2018-07-24T06:36:30.532Z,23.50
2018-07-24T06:38:59.108Z,24.20
2018-07-24T06:41:27.773Z,24.80
2018-07-24T06:43:56.505Z,25.30
2018-07-24T06:46:25.214Z,25.80
2018-07-24T06:48:54.296Z,26.30
2018-07-24T06:51:22.908Z,26.60
2018-07-24T06:53:51.520Z,27.00
2018-07-24T06:56:20.469Z,27.30
2018-07-24T07:03:45.602Z,28.00
2018-07-24T07:06:14.265Z,28.10
2018-07-24T07:08:43.106Z,28.20
2018-07-24T07:11:11.887Z,28.30
2018-07-24T07:13:40.612Z,28.40
2018-07-24T07:16:09.346Z,28.50
2018-07-24T07:18:38.015Z,28.60
2018-07-24T07:21:07.153Z,28.50
2018-07-24T07:23:35.839Z,28.50
2018-07-24T07:26:04.811Z,28.50
2018-07-24T07:28:33.254Z,28.60
2018-07-24T07:31:02.267Z,28.50
2018-07-24T07:33:30.807Z,28.60
2018-07-24T07:35:59.377Z,28.70
2018-07-24T07:38:27.908Z,28.60
2018-07-24T07:40:56.656Z,28.70
2018-07-24T07:43:25.707Z,28.80
2018-07-24T07:45:55.446Z,28.80
2018-07-24T07:48:24.069Z,28.80
2018-07-24T07:50:52.807Z,28.60
2018-07-24T07:53:21.528Z,28.60
2018-07-24T07:55:50.027Z,28.70
2018-07-24T07:58:18.669Z,28.60
2018-07-24T08:00:47.266Z,28.70
2018-07-24T08:03:15.830Z,28.70
2018-07-24T08:05:45.472Z,28.90
2018-07-24T08:08:14.096Z,29.00
2018-07-24T08:10:42.728Z,29.00
2018-07-24T08:13:11.595Z,28.70
2018-07-24T08:15:40.141Z,28.90
2018-07-24T08:18:08.761Z,28.90
2018-07-24T08:20:37.535Z,29.00
2018-07-24T08:23:06.236Z,29.00
2018-07-24T08:25:34.917Z,29.10
2018-07-24T08:28:03.664Z,29.00
2018-07-24T08:30:32.296Z,29.00
2018-07-24T08:33:01.017Z,29.00
2018-07-24T08:35:30.372Z,28.90
2018-07-24T08:37:59.168Z,29.00
2018-07-24T08:40:27.831Z,29.20
2018-07-24T08:42:56.473Z,29.40
2018-07-24T08:45:25.033Z,29.50
2018-07-24T08:47:53.587Z,29.60
2018-07-24T08:50:22.297Z,29.80
2018-07-24T08:52:50.965Z,30.00
2018-07-24T08:55:19.807Z,29.90
2018-07-24T08:57:48.189Z,30.00
2018-07-24T09:00:16.819Z,30.20
2018-07-24T09:02:45.404Z,30.10
2018-07-24T09:05:14.184Z,30.10
2018-07-24T09:07:42.880Z,30.10
2018-07-24T09:10:11.607Z,30.20
2018-07-24T09:12:40.328Z,30.30
2018-07-24T09:15:08.992Z,30.30
2018-07-24T09:17:37.546Z,30.50
2018-07-24T09:20:06.474Z,30.50
2018-07-24T09:22:35.319Z,30.50
2018-07-24T09:25:03.993Z,30.70
2018-07-24T09:27:32.794Z,30.80
2018-07-24T09:30:01.593Z,30.90
2018-07-24T09:32:30.810Z,31.00
2018-07-24T09:34:59.405Z,31.00
2018-07-24T09:37:27.980Z,30.90
2018-07-24T09:39:56.475Z,30.80
2018-07-24T09:42:25.222Z,30.90
2018-07-24T09:44:53.945Z,30.90
2018-07-24T09:47:22.489Z,30.80
2018-07-24T09:49:51.109Z,30.90
2018-07-24T09:52:19.706Z,30.90
2018-07-24T09:54:48.643Z,30.90
2018-07-24T09:57:17.480Z,30.80
2018-07-24T09:59:46.057Z,30.50
2018-07-24T10:02:14.659Z,30.30
2018-07-24T10:04:43.285Z,30.30
2018-07-24T10:07:11.891Z,30.40
2018-07-24T10:09:40.548Z,30.30
2018-07-24T10:12:09.494Z,30.30
2018-07-24T10:14:38.360Z,30.20
2018-07-24T10:17:07.156Z,30.30
2018-07-24T10:19:35.760Z,30.30
2018-07-24T10:24:33.073Z,30.20
2018-07-24T10:27:01.650Z,30.30
2018-07-24T10:29:30.469Z,30.50
2018-07-24T10:31:59.411Z,30.80
2018-07-24T10:34:28.047Z,30.90
2018-07-24T10:36:56.729Z,31.00
2018-07-24T10:39:25.246Z,31.00
2018-07-24T10:41:53.812Z,31.00
2018-07-24T10:44:22.704Z,30.90
2018-07-24T10:46:51.397Z,30.70
2018-07-24T10:51:48.685Z,30.60
2018-07-24T10:54:17.338Z,30.60
2018-07-24T10:56:46.079Z,30.40
2018-07-24T10:59:14.661Z,30.40
2018-07-24T11:01:43.231Z,30.30
2018-07-24T11:04:11.968Z,30.40
2018-07-24T11:06:40.630Z,30.40
2018-07-24T11:09:09.306Z,30.50
2018-07-24T11:11:37.918Z,30.60
2018-07-24T11:16:34.689Z,30.50
2018-07-24T11:19:03.536Z,30.60
2018-07-24T11:21:32.237Z,30.50
2018-07-24T11:24:00.773Z,30.50
2018-07-24T11:26:29.840Z,30.60
2018-07-24T11:28:58.428Z,30.50
2018-07-24T11:31:27.585Z,30.60
2018-07-24T11:33:56.190Z,30.80
2018-07-24T11:36:24.794Z,31.00
2018-07-24T11:38:53.486Z,31.10
2018-07-24T11:41:22.212Z,31.30
2018-07-24T11:43:50.999Z,31.10
2018-07-24T11:46:19.848Z,31.30
2018-07-24T11:48:48.460Z,31.20
2018-07-24T11:51:17.374Z,30.90
2018-07-24T11:53:45.926Z,31.00
2018-07-24T11:56:14.645Z,30.90
2018-07-24T11:58:44.250Z,30.90
2018-07-24T12:01:12.733Z,31.00
2018-07-24T12:03:41.707Z,30.80
2018-07-24T12:06:10.361Z,31.00
2018-07-24T12:08:39.123Z,31.10
2018-07-24T12:11:07.797Z,31.30
2018-07-24T12:13:36.364Z,31.30
2018-07-24T12:16:05.162Z,31.30
2018-07-24T12:18:33.929Z,31.20
2018-07-24T12:23:30.795Z,31.30
2018-07-24T12:25:59.468Z,31.20
2018-07-24T12:28:28.022Z,31.30
2018-07-24T12:30:56.775Z,31.50
2018-07-24T12:33:25.444Z,31.70
2018-07-24T12:35:54.163Z,31.50
2018-07-24T12:38:22.807Z,31.20
2018-07-24T12:40:51.366Z,31.10
2018-07-24T12:43:20.017Z,31.20
2018-07-24T12:45:48.772Z,31.50
2018-07-24T12:48:17.341Z,31.70
2018-07-24T12:50:46.437Z,31.90
2018-07-24T12:53:15.372Z,31.90
2018-07-24T12:55:44.252Z,31.90
2018-07-24T12:58:12.859Z,31.90
2018-07-24T13:00:41.449Z,32.10
2018-07-24T13:03:09.997Z,32.20
2018-07-24T13:05:38.680Z,32.20
2018-07-24T13:08:08.002Z,32.30
2018-07-24T13:10:36.638Z,32.20
2018-07-24T13:13:05.345Z,32.10
2018-07-24T13:15:34.079Z,32.10
2018-07-24T13:18:02.774Z,32.30
2018-07-24T13:20:31.296Z,32.20
2018-07-24T13:23:00.076Z,32.10
2018-07-24T13:25:28.643Z,31.90
2018-07-24T13:27:57.383Z,31.70
2018-07-24T13:30:26.051Z,31.60
2018-07-24T13:32:54.616Z,31.30
2018-07-24T13:35:23.157Z,31.20
2018-07-24T13:37:51.720Z,31.10
2018-07-24T13:40:20.585Z,31.20
2018-07-24T13:42:49.193Z,31.30
2018-07-24T13:45:18.234Z,31.40
2018-07-24T13:47:46.858Z,31.40
2018-07-24T13:50:16.338Z,31.40
2018-07-24T13:52:44.856Z,31.40
2018-07-24T13:55:13.488Z,31.30
2018-07-24T13:57:42.104Z,31.30
2018-07-24T14:00:11.657Z,31.30
2018-07-24T14:02:40.378Z,31.40
2018-07-24T14:05:09.810Z,31.50
2018-07-24T14:07:38.311Z,31.50
2018-07-24T14:10:06.894Z,31.50
2018-07-24T14:12:35.611Z,31.50
2018-07-24T14:15:04.504Z,31.40
2018-07-24T14:17:33.294Z,31.40
2018-07-24T14:20:01.901Z,31.30
2018-07-24T14:22:30.518Z,31.40
2018-07-24T14:24:59.872Z,31.40
2018-07-24T14:27:29.423Z,31.40
2018-07-24T14:29:57.960Z,31.50
2018-07-24T14:32:26.638Z,31.40
2018-07-24T14:34:55.312Z,31.60
2018-07-24T14:37:24.017Z,31.60
2018-07-24T14:39:52.804Z,31.60
2018-07-24T14:42:22.233Z,31.80
2018-07-24T14:44:50.810Z,32.00
2018-07-24T14:47:19.495Z,32.20
2018-07-24T14:49:48.658Z,32.30
2018-07-24T14:52:17.437Z,32.40
2018-07-24T14:54:45.980Z,32.50
2018-07-24T14:57:14.828Z,32.60
2018-07-24T14:59:43.465Z,32.80
2018-07-24T15:02:11.958Z,32.70
2018-07-24T15:04:40.765Z,32.70
2018-07-24T15:09:37.558Z,32.80
2018-07-24T15:12:06.284Z,32.90
2018-07-24T15:14:35.411Z,33.00
2018-07-24T15:17:04.145Z,33.00
2018-07-24T15:19:32.817Z,32.70
2018-07-24T15:22:02.266Z,32.70
2018-07-24T15:24:30.917Z,32.70
2018-07-24T15:26:59.467Z,32.40
2018-07-24T15:29:28.098Z,32.40
2018-07-24T15:31:56.713Z,32.20
2018-07-24T15:34:25.434Z,32.10
2018-07-24T15:36:54.919Z,32.10
2018-07-24T15:39:23.537Z,32.30
2018-07-24T15:41:52.650Z,32.40
2018-07-24T15:44:21.923Z,32.40
2018-07-24T15:49:21.074Z,32.50
2018-07-24T15:51:49.912Z,32.60
2018-07-24T15:54:18.553Z,32.50
2018-07-24T15:56:47.092Z,32.30
2018-07-24T15:59:15.874Z,32.10
2018-07-24T16:01:44.699Z,32.20
2018-07-24T16:04:13.507Z,32.30
2018-07-24T16:06:42.382Z,32.20
2018-07-24T16:09:12.968Z,32.20
2018-07-24T16:11:41.737Z,32.20
2018-07-24T16:14:10.671Z,32.30
2018-07-24T16:16:40.164Z,32.40
2018-07-24T16:19:08.872Z,32.30
2018-07-24T16:21:37.661Z,32.30
2018-07-24T16:24:06.210Z,32.30
2018-07-24T16:26:35.582Z,32.20
2018-07-24T16:29:05.474Z,32.30
2018-07-24T16:31:34.465Z,32.20
2018-07-24T16:34:03.102Z,32.10
2018-07-24T16:36:31.856Z,32.10
2018-07-24T16:39:00.504Z,32.00
2018-07-24T16:41:29.453Z,31.90
2018-07-24T16:43:58.160Z,31.80
2018-07-24T16:46:26.717Z,31.70
2018-07-24T16:48:55.425Z,31.80
2018-07-24T16:51:25.204Z,31.70
2018-07-24T16:53:55.190Z,31.50
2018-07-24T16:56:24.004Z,31.30
2018-07-24T16:58:53.034Z,31.20
2018-07-24T17:01:21.923Z,31.20
2018-07-24T17:03:50.482Z,31.10
2018-07-24T17:06:20.801Z,31.10
2018-07-24T17:08:50.432Z,31.10
2018-07-24T17:11:18.960Z,31.10
2018-07-24T17:13:47.711Z,31.20
2018-07-24T17:16:16.166Z,31.20
2018-07-24T17:18:44.851Z,31.20
2018-07-24T17:21:13.514Z,31.10
2018-07-24T17:23:42.300Z,31.20
2018-07-24T17:26:11.076Z,31.20
2018-07-24T17:28:39.678Z,31.30
2018-07-24T17:31:08.700Z,31.40
2018-07-24T17:33:37.326Z,31.40
2018-07-24T17:36:05.915Z,31.30
2018-07-24T17:38:34.696Z,31.30
2018-07-24T17:41:03.455Z,31.40
2018-07-24T17:43:32.114Z,31.50
2018-07-24T17:46:00.753Z,31.50
2018-07-24T17:48:29.511Z,31.40
2018-07-24T17:50:58.033Z,31.30
2018-07-24T17:53:26.959Z,31.30
2018-07-24T17:55:56.472Z,31.30
2018-07-24T17:58:25.003Z,31.30
2018-07-24T18:00:53.611Z,31.30
2018-07-24T18:03:22.129Z,31.20
2018-07-24T18:05:50.861Z,31.20
2018-07-24T18:08:19.548Z,31.20
2018-07-24T18:10:48.257Z,31.20
2018-07-24T18:13:17.058Z,31.20
2018-07-24T18:15:45.692Z,31.20
2018-07-24T18:20:42.533Z,31.00
2018-07-24T18:23:11.116Z,31.00
2018-07-24T18:28:08.325Z,30.90
2018-07-24T18:30:36.971Z,30.90
2018-07-24T18:33:05.832Z,30.80
2018-07-24T18:35:34.498Z,30.80
2018-07-24T18:38:03.161Z,30.70
2018-07-24T18:40:31.856Z,30.70
2018-07-24T18:43:00.436Z,30.70
2018-07-24T18:45:29.003Z,30.50
2018-07-24T18:47:57.677Z,30.50
2018-07-24T18:50:26.404Z,30.40
2018-07-24T18:52:55.156Z,30.30
2018-07-24T18:55:23.739Z,30.20
2018-07-24T18:57:52.426Z,30.10
2018-07-24T19:00:21.010Z,30.10
2018-07-24T19:02:49.678Z,30.00
2018-07-24T19:05:18.337Z,29.90
2018-07-24T19:07:46.988Z,29.80
2018-07-24T19:10:15.490Z,29.70
2018-07-24T19:12:44.096Z,29.60
2018-07-24T19:15:12.631Z,29.50
2018-07-24T19:17:41.181Z,29.30
2018-07-24T19:20:09.788Z,29.10
2018-07-24T19:22:38.417Z,29.00
2018-07-24T19:25:07.047Z,28.80
2018-07-24T19:27:35.702Z,28.70
2018-07-24T19:30:04.897Z,28.60
2018-07-24T19:32:33.671Z,28.40
2018-07-24T19:37:30.558Z,28.10
2018-07-24T19:39:59.251Z,28.10
2018-07-24T19:42:27.768Z,28.00
2018-07-24T19:44:56.324Z,27.90
2018-07-24T19:47:24.862Z,27.80
2018-07-24T19:49:53.446Z,27.70
2018-07-24T19:52:22.193Z,27.60
2018-07-24T19:54:50.922Z,27.50
2018-07-24T19:57:19.575Z,27.50
2018-07-24T19:59:48.236Z,27.40
2018-07-24T20:02:16.992Z,27.30
2018-07-24T20:04:45.589Z,27.30
2018-07-24T20:07:14.129Z,27.20
2018-07-24T20:09:42.830Z,27.10
2018-07-24T20:14:39.742Z,27.00
2018-07-24T20:17:08.395Z,27.00
2018-07-24T20:19:36.921Z,26.90
2018-07-24T20:22:05.642Z,26.90
2018-07-24T20:24:34.404Z,26.80
2018-07-24T20:27:02.921Z,26.80
2018-07-24T20:29:31.452Z,26.70
2018-07-24T20:32:01.035Z,26.60
2018-07-24T20:34:30.055Z,26.50
2018-07-24T20:36:58.700Z,26.50
2018-07-24T20:39:27.420Z,26.40
2018-07-24T20:41:56.015Z,26.40
2018-07-24T20:44:24.606Z,26.30
2018-07-24T20:46:53.199Z,26.20
2018-07-24T20:49:21.860Z,26.20
2018-07-24T20:51:50.677Z,26.10
2018-07-24T20:54:19.312Z,26.00
2018-07-24T20:56:47.844Z,25.80
2018-07-24T20:59:16.691Z,25.70
2018-07-24T21:01:45.428Z,25.60
2018-07-24T21:04:14.063Z,25.50
2018-07-24T21:06:42.787Z,25.50
2018-07-24T21:09:11.777Z,25.40
2018-07-24T21:11:40.882Z,25.40
2018-07-24T21:14:10.163Z,25.30
2018-07-24T21:16:38.955Z,25.30
2018-07-24T21:19:08.484Z,25.30
2018-07-24T21:21:37.726Z,25.20
2018-07-24T21:24:06.368Z,25.20
2018-07-24T21:26:35.057Z,25.10
2018-07-24T21:29:04.371Z,25.10
2018-07-24T21:31:33.968Z,25.10
2018-07-24T21:34:02.581Z,25.00
2018-07-24T21:36:32.057Z,25.00
2018-07-24T21:39:00.697Z,24.80
2018-07-24T21:41:29.341Z,24.80
2018-07-24T21:43:58.049Z,24.70
2018-07-24T21:46:26.966Z,24.80
2018-07-24T21:48:55.543Z,24.60
2018-07-24T21:51:24.064Z,24.50
2018-07-24T21:53:53.572Z,24.50
2018-07-24T21:56:22.497Z,24.50
2018-07-24T21:58:51.118Z,24.50
2018-07-24T22:01:23.714Z,24.50
2018-07-24T22:03:52.544Z,24.50
2018-07-24T22:08:50.591Z,24.20
2018-07-24T22:11:19.305Z,24.10
2018-07-24T22:13:48.019Z,24.10
2018-07-24T22:16:16.671Z,24.00
2018-07-24T22:21:13.669Z,24.00
2018-07-24T22:23:42.347Z,24.10
2018-07-24T22:26:11.052Z,24.10
2018-07-24T22:28:39.778Z,24.10
2018-07-24T22:31:08.607Z,24.10
2018-07-24T22:33:37.396Z,24.00
2018-07-24T22:36:06.011Z,23.90
2018-07-24T22:38:34.717Z,23.80
2018-07-24T22:41:03.305Z,23.90
2018-07-24T22:46:00.174Z,23.70
2018-07-24T22:48:29.217Z,23.50
2018-07-24T22:50:57.800Z,23.50
2018-07-24T22:53:26.438Z,23.50
2018-07-24T22:55:55.154Z,23.50
2018-07-24T22:58:23.910Z,23.60
2018-07-24T23:00:52.615Z,23.50
2018-07-24T23:03:21.336Z,23.50
2018-07-24T23:05:49.950Z,23.50
2018-07-24T23:08:18.475Z,23.50
2018-07-24T23:10:47.048Z,23.50
2018-07-24T23:13:15.580Z,23.50
2018-07-24T23:15:44.263Z,23.40
2018-07-24T23:18:14.349Z,23.40
2018-07-24T23:20:42.999Z,23.50
2018-07-24T23:23:11.592Z,23.40
2018-07-24T23:25:40.426Z,23.30
2018-07-24T23:28:09.376Z,23.30
2018-07-24T23:30:38.020Z,23.30
2018-07-24T23:33:06.803Z,23.30
2018-07-24T23:35:35.512Z,23.30
2018-07-24T23:38:04.218Z,23.30
2018-07-24T23:40:32.962Z,23.30
2018-07-24T23:43:01.720Z,23.20
2018-07-24T23:45:30.349Z,23.20
2018-07-24T23:47:59.215Z,23.20
2018-07-24T23:50:27.710Z,23.10
2018-07-24T23:52:56.337Z,23.10
2018-07-24T23:55:24.976Z,23.00
2018-07-24T23:57:53.649Z,23.00
